Germania, New Jersey
Current Conditions -  °F | °C
As of 1:54 PM on Sunday 21 Dec 2014 (Local Time) from KACY Reporting Station
Clear Clear  
Wind Chill: 35°   Ceiling: Unl
Heat Index: 41°   Visibility: 10mi
Dew Point: 22°   Wind: 10mph
Humidity: 47%   Direction: 310°NW
Pressure: 30.28"   Gusts: NA
Location:  39.5436°N, 74.5919°W
Report Text: KACY 211854Z 31009KT 10SM CLR 05/M06 A3028 RMK AO2 SLP253 T00501056
Loading
Personal Weather Stations






























Interactive Weather Map New forecast layout! Learn more

10-Day Weather Forecast

Advertisements
Track Severe Weather on mobile